sensor_id;sensor_type;location;lat;lon;timestamp;P1;durP1;ratioP1;P2;durP2;ratioP2
49876;SDS011;35771;48.978;9.294;2022-10-31T00:00:56;9.23;;;4.30;;
49876;SDS011;35771;48.978;9.294;2022-10-31T00:03:23;7.78;;;4.30;;
49876;SDS011;35771;48.978;9.294;2022-10-31T00:05:51;18.50;;;5.13;;
49876;SDS011;35771;48.978;9.294;2022-10-31T00:08:18;10.98;;;4.95;;
49876;SDS011;35771;48.978;9.294;2022-10-31T00:10:45;11.50;;;5.22;;
49876;SDS011;35771;48.978;9.294;2022-10-31T00:13:12;9.80;;;4.75;;
49876;SDS011;35771;48.978;9.294;2022-10-31T00:15:41;10.38;;;5.35;;
49876;SDS011;35771;48.978;9.294;2022-10-31T00:18:08;11.65;;;5.03;;
49876;SDS011;35771;48.978;9.294;2022-10-31T00:20:36;9.07;;;5.30;;
49876;SDS011;35771;48.978;9.294;2022-10-31T00:23:03;14.10;;;4.93;;
49876;SDS011;35771;48.978;9.294;2022-10-31T00:25:33;11.93;;;5.22;;
49876;SDS011;35771;48.978;9.294;2022-10-31T00:28:00;8.65;;;4.43;;
49876;SDS011;35771;48.978;9.294;2022-10-31T00:30:27;8.80;;;4.35;;
49876;SDS011;35771;48.978;9.294;2022-10-31T00:32:55;11.27;;;4.20;;
49876;SDS011;35771;48.978;9.294;2022-10-31T00:35:21;11.55;;;4.72;;
49876;SDS011;35771;48.978;9.294;2022-10-31T00:37:48;6.97;;;4.07;;
49876;SDS011;35771;48.978;9.294;2022-10-31T00:40:14;10.10;;;4.38;;
49876;SDS011;35771;48.978;9.294;2022-10-31T00:42:41;9.55;;;4.05;;
49876;SDS011;35771;48.978;9.294;2022-10-31T00:45:08;6.90;;;3.90;;
49876;SDS011;35771;48.978;9.294;2022-10-31T00:47:35;10.13;;;4.30;;
49876;SDS011;35771;48.978;9.294;2022-10-31T00:50:03;12.52;;;4.15;;
49876;SDS011;35771;48.978;9.294;2022-10-31T00:52:31;8.55;;;3.80;;
49876;SDS011;35771;48.978;9.294;2022-10-31T00:54:57;7.53;;;3.70;;
49876;SDS011;35771;48.978;9.294;2022-10-31T00:57:24;12.85;;;4.25;;
49876;SDS011;35771;48.978;9.294;2022-10-31T00:59:50;10.38;;;4.35;;
49876;SDS011;35771;48.978;9.294;2022-10-31T01:02:17;6.47;;;3.95;;
49876;SDS011;35771;48.978;9.294;2022-10-31T01:04:43;12.65;;;4.80;;
49876;SDS011;35771;48.978;9.294;2022-10-31T01:07:11;8.13;;;4.30;;
49876;SDS011;35771;48.978;9.294;2022-10-31T01:09:39;8.98;;;5.00;;
49876;SDS011;35771;48.978;9.294;2022-10-31T01:12:06;17.70;;;5.15;;
49876;SDS011;35771;48.978;9.294;2022-10-31T01:14:33;8.65;;;4.18;;
49876;SDS011;35771;48.978;9.294;2022-10-31T01:16:59;8.57;;;4.40;;
49876;SDS011;35771;48.978;9.294;2022-10-31T01:19:26;19.35;;;5.00;;
49876;SDS011;35771;48.978;9.294;2022-10-31T01:21:53;8.48;;;3.80;;
49876;SDS011;35771;48.978;9.294;2022-10-31T01:24:22;11.15;;;3.35;;
49876;SDS011;35771;48.978;9.294;2022-10-31T01:26:48;16.02;;;4.07;;
49876;SDS011;35771;48.978;9.294;2022-10-31T01:29:15;13.27;;;4.40;;
49876;SDS011;35771;48.978;9.294;2022-10-31T01:31:41;14.68;;;4.32;;
49876;SDS011;35771;48.978;9.294;2022-10-31T01:34:09;11.25;;;3.67;;
49876;SDS011;35771;48.978;9.294;2022-10-31T01:36:39;10.82;;;4.35;;
49876;SDS011;35771;48.978;9.294;2022-10-31T01:39:07;10.60;;;3.45;;
49876;SDS011;35771;48.978;9.294;2022-10-31T01:41:38;7.83;;;3.63;;
49876;SDS011;35771;48.978;9.294;2022-10-31T01:49:36;7.93;;;4.03;;
49876;SDS011;35771;48.978;9.294;2022-10-31T01:52:07;10.55;;;3.80;;
49876;SDS011;35771;48.978;9.294;2022-10-31T01:54:39;13.35;;;4.03;;
49876;SDS011;35771;48.978;9.294;2022-10-31T01:57:11;5.38;;;3.33;;
49876;SDS011;35771;48.978;9.294;2022-10-31T01:59:40;11.55;;;4.63;;
49876;SDS011;35771;48.978;9.294;2022-10-31T02:02:10;7.20;;;3.70;;
49876;SDS011;35771;48.978;9.294;2022-10-31T02:04:38;9.60;;;3.50;;
49876;SDS011;35771;48.978;9.294;2022-10-31T02:07:07;7.78;;;3.50;;
49876;SDS011;35771;48.978;9.294;2022-10-31T02:09:38;8.23;;;4.15;;
49876;SDS011;35771;48.978;9.294;2022-10-31T02:12:06;12.20;;;6.00;;
49876;SDS011;35771;48.978;9.294;2022-10-31T02:14:36;7.28;;;3.22;;
49876;SDS011;35771;48.978;9.294;2022-10-31T02:17:03;9.00;;;3.72;;
49876;SDS011;35771;48.978;9.294;2022-10-31T02:19:32;12.13;;;3.67;;
49876;SDS011;35771;48.978;9.294;2022-10-31T02:22:05;12.27;;;3.83;;
49876;SDS011;35771;48.978;9.294;2022-10-31T02:24:44;16.67;;;3.88;;
49876;SDS011;35771;48.978;9.294;2022-10-31T02:30:21;12.43;;;4.03;;
49876;SDS011;35771;48.978;9.294;2022-10-31T02:33:00;10.18;;;4.28;;
49876;SDS011;35771;48.978;9.294;2022-10-31T02:35:37;10.50;;;4.10;;
49876;SDS011;35771;48.978;9.294;2022-10-31T02:38:13;9.00;;;3.47;;
49876;SDS011;35771;48.978;9.294;2022-10-31T02:40:57;14.65;;;4.07;;
49876;SDS011;35771;48.978;9.294;2022-10-31T02:43:31;12.32;;;3.85;;
49876;SDS011;35771;48.978;9.294;2022-10-31T02:46:13;10.05;;;4.07;;
49876;SDS011;35771;48.978;9.294;2022-10-31T02:48:46;6.05;;;3.67;;
49876;SDS011;35771;48.978;9.294;2022-10-31T02:51:16;9.82;;;3.85;;
49876;SDS011;35771;48.978;9.294;2022-10-31T02:53:44;13.13;;;3.80;;
49876;SDS011;35771;48.978;9.294;2022-10-31T02:56:11;8.00;;;3.92;;
49876;SDS011;35771;48.978;9.294;2022-10-31T02:58:41;11.05;;;4.30;;
49876;SDS011;35771;48.978;9.294;2022-10-31T03:01:22;9.20;;;3.63;;
49876;SDS011;35771;48.978;9.294;2022-10-31T03:04:15;13.93;;;3.92;;
49876;SDS011;35771;48.978;9.294;2022-10-31T03:07:03;11.07;;;3.60;;
49876;SDS011;35771;48.978;9.294;2022-10-31T03:09:39;7.20;;;4.00;;
49876;SDS011;35771;48.978;9.294;2022-10-31T03:12:14;8.43;;;3.92;;
49876;SDS011;35771;48.978;9.294;2022-10-31T03:14:50;8.15;;;4.00;;
49876;SDS011;35771;48.978;9.294;2022-10-31T03:17:23;13.38;;;4.68;;
49876;SDS011;35771;48.978;9.294;2022-10-31T03:19:56;10.18;;;4.63;;
49876;SDS011;35771;48.978;9.294;2022-10-31T03:22:27;15.07;;;5.20;;
49876;SDS011;35771;48.978;9.294;2022-10-31T03:24:56;17.60;;;4.95;;
49876;SDS011;35771;48.978;9.294;2022-10-31T03:27:24;7.72;;;4.28;;
49876;SDS011;35771;48.978;9.294;2022-10-31T03:29:54;14.43;;;5.13;;
49876;SDS011;35771;48.978;9.294;2022-10-31T03:32:24;14.13;;;5.00;;
49876;SDS011;35771;48.978;9.294;2022-10-31T03:34:57;8.13;;;4.13;;
49876;SDS011;35771;48.978;9.294;2022-10-31T03:37:27;12.60;;;4.18;;
49876;SDS011;35771;48.978;9.294;2022-10-31T03:42:25;6.63;;;3.55;;
49876;SDS011;35771;48.978;9.294;2022-10-31T03:44:56;6.60;;;3.80;;
49876;SDS011;35771;48.978;9.294;2022-10-31T03:47:27;6.13;;;3.63;;
49876;SDS011;35771;48.978;9.294;2022-10-31T03:49:54;10.38;;;4.20;;
49876;SDS011;35771;48.978;9.294;2022-10-31T03:52:24;7.78;;;3.45;;
49876;SDS011;35771;48.978;9.294;2022-10-31T03:54:56;8.68;;;3.83;;
49876;SDS011;35771;48.978;9.294;2022-10-31T03:57:26;7.68;;;3.97;;
49876;SDS011;35771;48.978;9.294;2022-10-31T03:59:58;9.75;;;3.95;;
49876;SDS011;35771;48.978;9.294;2022-10-31T04:02:29;11.82;;;3.80;;
49876;SDS011;35771;48.978;9.294;2022-10-31T04:05:01;15.05;;;6.18;;
49876;SDS011;35771;48.978;9.294;2022-10-31T04:07:29;7.43;;;3.67;;
49876;SDS011;35771;48.978;9.294;2022-10-31T04:10:06;8.23;;;3.78;;
49876;SDS011;35771;48.978;9.294;2022-10-31T04:12:36;7.20;;;3.38;;
49876;SDS011;35771;48.978;9.294;2022-10-31T04:15:05;11.75;;;3.90;;
49876;SDS011;35771;48.978;9.294;2022-10-31T04:17:34;8.98;;;3.42;;
49876;SDS011;35771;48.978;9.294;2022-10-31T04:20:07;10.07;;;3.72;;
49876;SDS011;35771;48.978;9.294;2022-10-31T04:22:34;10.02;;;3.63;;
49876;SDS011;35771;48.978;9.294;2022-10-31T04:25:01;7.20;;;3.75;;
49876;SDS011;35771;48.978;9.294;2022-10-31T04:27:27;7.57;;;3.97;;
49876;SDS011;35771;48.978;9.294;2022-10-31T04:29:54;6.82;;;3.75;;
49876;SDS011;35771;48.978;9.294;2022-10-31T04:32:20;8.98;;;3.70;;
49876;SDS011;35771;48.978;9.294;2022-10-31T04:34:47;9.57;;;4.05;;
49876;SDS011;35771;48.978;9.294;2022-10-31T04:37:15;6.88;;;4.15;;
49876;SDS011;35771;48.978;9.294;2022-10-31T04:39:41;7.93;;;3.45;;
49876;SDS011;35771;48.978;9.294;2022-10-31T04:42:08;8.15;;;4.20;;
49876;SDS011;35771;48.978;9.294;2022-10-31T04:44:34;9.57;;;3.92;;
49876;SDS011;35771;48.978;9.294;2022-10-31T04:47:01;12.70;;;3.25;;
49876;SDS011;35771;48.978;9.294;2022-10-31T04:49:27;5.70;;;3.45;;
49876;SDS011;35771;48.978;9.294;2022-10-31T04:51:54;9.57;;;3.65;;
49876;SDS011;35771;48.978;9.294;2022-10-31T04:54:22;6.15;;;3.35;;
49876;SDS011;35771;48.978;9.294;2022-10-31T04:56:48;7.75;;;3.80;;
49876;SDS011;35771;48.978;9.294;2022-10-31T04:59:15;5.03;;;3.25;;
49876;SDS011;35771;48.978;9.294;2022-10-31T05:01:41;8.45;;;3.75;;
49876;SDS011;35771;48.978;9.294;2022-10-31T05:04:08;8.60;;;3.60;;
49876;SDS011;35771;48.978;9.294;2022-10-31T05:06:34;13.15;;;3.60;;
49876;SDS011;35771;48.978;9.294;2022-10-31T05:09:01;11.05;;;3.45;;
49876;SDS011;35771;48.978;9.294;2022-10-31T05:11:29;10.27;;;4.63;;
49876;SDS011;35771;48.978;9.294;2022-10-31T05:13:55;13.25;;;5.18;;
49876;SDS011;35771;48.978;9.294;2022-10-31T05:16:22;39.33;;;4.85;;
49876;SDS011;35771;48.978;9.294;2022-10-31T05:18:48;17.88;;;4.13;;
49876;SDS011;35771;48.978;9.294;2022-10-31T05:21:15;5.97;;;3.47;;
49876;SDS011;35771;48.978;9.294;2022-10-31T05:23:41;15.52;;;5.47;;
49876;SDS011;35771;48.978;9.294;2022-10-31T05:26:08;6.78;;;3.78;;
49876;SDS011;35771;48.978;9.294;2022-10-31T05:28:36;9.02;;;4.22;;
49876;SDS011;35771;48.978;9.294;2022-10-31T05:31:02;11.45;;;4.45;;
49876;SDS011;35771;48.978;9.294;2022-10-31T05:33:29;6.78;;;3.92;;
49876;SDS011;35771;48.978;9.294;2022-10-31T05:35:56;12.20;;;4.25;;
49876;SDS011;35771;48.978;9.294;2022-10-31T05:38:22;7.55;;;3.88;;
49876;SDS011;35771;48.978;9.294;2022-10-31T05:40:49;11.73;;;3.90;;
49876;SDS011;35771;48.978;9.294;2022-10-31T05:43:15;7.53;;;3.45;;
49876;SDS011;35771;48.978;9.294;2022-10-31T05:45:43;6.63;;;3.83;;
49876;SDS011;35771;48.978;9.294;2022-10-31T05:48:10;10.95;;;4.35;;
49876;SDS011;35771;48.978;9.294;2022-10-31T05:50:36;8.60;;;4.50;;
49876;SDS011;35771;48.978;9.294;2022-10-31T05:53:04;5.18;;;3.35;;
49876;SDS011;35771;48.978;9.294;2022-10-31T05:55:31;6.57;;;3.55;;
49876;SDS011;35771;48.978;9.294;2022-10-31T05:57:58;8.75;;;3.55;;
49876;SDS011;35771;48.978;9.294;2022-10-31T06:00:25;7.20;;;3.60;;
49876;SDS011;35771;48.978;9.294;2022-10-31T06:02:58;14.13;;;3.67;;
49876;SDS011;35771;48.978;9.294;2022-10-31T06:05:25;7.50;;;3.70;;
49876;SDS011;35771;48.978;9.294;2022-10-31T06:07:52;11.32;;;4.05;;
49876;SDS011;35771;48.978;9.294;2022-10-31T06:10:18;6.90;;;4.10;;
49876;SDS011;35771;48.978;9.294;2022-10-31T06:12:45;14.10;;;3.85;;
49876;SDS011;35771;48.978;9.294;2022-10-31T06:15:12;8.10;;;3.30;;
49876;SDS011;35771;48.978;9.294;2022-10-31T06:17:39;10.25;;;4.00;;
49876;SDS011;35771;48.978;9.294;2022-10-31T06:20:08;6.75;;;3.88;;
49876;SDS011;35771;48.978;9.294;2022-10-31T06:22:35;14.95;;;4.13;;
49876;SDS011;35771;48.978;9.294;2022-10-31T06:25:02;7.85;;;3.50;;
49876;SDS011;35771;48.978;9.294;2022-10-31T06:27:28;10.55;;;3.40;;
49876;SDS011;35771;48.978;9.294;2022-10-31T06:29:55;8.02;;;4.43;;
49876;SDS011;35771;48.978;9.294;2022-10-31T06:32:22;12.20;;;3.90;;
49876;SDS011;35771;48.978;9.294;2022-10-31T06:34:48;9.05;;;3.92;;
49876;SDS011;35771;48.978;9.294;2022-10-31T06:37:16;17.48;;;4.00;;
49876;SDS011;35771;48.978;9.294;2022-10-31T06:39:42;15.45;;;4.55;;
49876;SDS011;35771;48.978;9.294;2022-10-31T06:42:09;10.93;;;4.05;;
49876;SDS011;35771;48.978;9.294;2022-10-31T06:44:36;13.18;;;4.78;;
49876;SDS011;35771;48.978;9.294;2022-10-31T06:47:02;23.33;;;4.82;;
49876;SDS011;35771;48.978;9.294;2022-10-31T06:49:29;32.17;;;6.72;;
49876;SDS011;35771;48.978;9.294;2022-10-31T06:51:55;33.38;;;5.63;;
49876;SDS011;35771;48.978;9.294;2022-10-31T06:54:23;12.15;;;5.78;;
49876;SDS011;35771;48.978;9.294;2022-10-31T06:56:50;14.27;;;5.25;;
49876;SDS011;35771;48.978;9.294;2022-10-31T06:59:17;12.00;;;6.18;;
49876;SDS011;35771;48.978;9.294;2022-10-31T07:01:44;19.25;;;5.70;;
49876;SDS011;35771;48.978;9.294;2022-10-31T07:04:11;26.67;;;7.32;;
49876;SDS011;35771;48.978;9.294;2022-10-31T07:06:38;24.75;;;6.60;;
49876;SDS011;35771;48.978;9.294;2022-10-31T07:09:04;20.98;;;7.00;;
49876;SDS011;35771;48.978;9.294;2022-10-31T07:11:32;10.45;;;6.07;;
49876;SDS011;35771;48.978;9.294;2022-10-31T07:13:59;16.35;;;5.95;;
49876;SDS011;35771;48.978;9.294;2022-10-31T07:16:25;22.63;;;6.00;;
49876;SDS011;35771;48.978;9.294;2022-10-31T07:18:52;24.90;;;7.10;;
49876;SDS011;35771;48.978;9.294;2022-10-31T07:21:18;16.60;;;6.50;;
49876;SDS011;35771;48.978;9.294;2022-10-31T07:23:46;17.02;;;6.20;;
49876;SDS011;35771;48.978;9.294;2022-10-31T07:26:13;15.63;;;5.43;;
49876;SDS011;35771;48.978;9.294;2022-10-31T07:28:41;22.95;;;5.55;;
49876;SDS011;35771;48.978;9.294;2022-10-31T07:31:08;22.20;;;5.82;;
49876;SDS011;35771;48.978;9.294;2022-10-31T07:33:34;18.60;;;6.20;;
49876;SDS011;35771;48.978;9.294;2022-10-31T07:36:01;17.15;;;5.13;;
49876;SDS011;35771;48.978;9.294;2022-10-31T07:38:27;16.88;;;5.57;;
49876;SDS011;35771;48.978;9.294;2022-10-31T07:40:54;21.42;;;4.63;;
49876;SDS011;35771;48.978;9.294;2022-10-31T07:43:21;28.50;;;8.82;;
49876;SDS011;35771;48.978;9.294;2022-10-31T07:45:52;22.10;;;7.63;;
49876;SDS011;35771;48.978;9.294;2022-10-31T07:48:19;18.08;;;7.43;;
49876;SDS011;35771;48.978;9.294;2022-10-31T07:50:45;10.85;;;5.32;;
49876;SDS011;35771;48.978;9.294;2022-10-31T07:53:12;6.07;;;4.35;;
49876;SDS011;35771;48.978;9.294;2022-10-31T07:55:40;7.85;;;4.60;;
49876;SDS011;35771;48.978;9.294;2022-10-31T07:58:08;9.45;;;4.55;;
49876;SDS011;35771;48.978;9.294;2022-10-31T08:00:36;7.82;;;4.07;;
49876;SDS011;35771;48.978;9.294;2022-10-31T08:03:05;10.05;;;4.88;;
49876;SDS011;35771;48.978;9.294;2022-10-31T08:05:33;8.80;;;4.03;;
49876;SDS011;35771;48.978;9.294;2022-10-31T08:08:00;7.38;;;4.47;;
49876;SDS011;35771;48.978;9.294;2022-10-31T08:10:27;9.70;;;4.32;;
49876;SDS011;35771;48.978;9.294;2022-10-31T08:12:57;8.27;;;4.93;;
49876;SDS011;35771;48.978;9.294;2022-10-31T08:15:24;10.48;;;4.85;;
49876;SDS011;35771;48.978;9.294;2022-10-31T08:17:51;16.33;;;4.53;;
49876;SDS011;35771;48.978;9.294;2022-10-31T08:20:19;7.32;;;5.05;;
49876;SDS011;35771;48.978;9.294;2022-10-31T08:22:56;7.78;;;4.90;;
49876;SDS011;35771;48.978;9.294;2022-10-31T08:25:24;10.45;;;6.40;;
49876;SDS011;35771;48.978;9.294;2022-10-31T08:27:52;14.07;;;6.97;;
49876;SDS011;35771;48.978;9.294;2022-10-31T08:30:19;13.10;;;6.78;;
49876;SDS011;35771;48.978;9.294;2022-10-31T08:32:46;11.38;;;5.72;;
49876;SDS011;35771;48.978;9.294;2022-10-31T08:35:13;7.50;;;5.15;;
49876;SDS011;35771;48.978;9.294;2022-10-31T08:37:42;11.55;;;5.65;;
49876;SDS011;35771;48.978;9.294;2022-10-31T08:40:09;18.98;;;5.80;;
49876;SDS011;35771;48.978;9.294;2022-10-31T08:42:38;9.17;;;5.80;;
49876;SDS011;35771;48.978;9.294;2022-10-31T08:45:04;7.95;;;4.43;;
49876;SDS011;35771;48.978;9.294;2022-10-31T08:47:31;9.55;;;5.15;;
49876;SDS011;35771;48.978;9.294;2022-10-31T08:49:58;10.55;;;5.40;;
49876;SDS011;35771;48.978;9.294;2022-10-31T08:52:24;11.63;;;6.13;;
49876;SDS011;35771;48.978;9.294;2022-10-31T08:54:52;12.13;;;6.93;;
49876;SDS011;35771;48.978;9.294;2022-10-31T08:57:19;22.60;;;6.85;;
49876;SDS011;35771;48.978;9.294;2022-10-31T08:59:45;20.13;;;6.07;;
49876;SDS011;35771;48.978;9.294;2022-10-31T09:02:12;14.55;;;7.13;;
49876;SDS011;35771;48.978;9.294;2022-10-31T09:04:39;16.10;;;7.30;;
49876;SDS011;35771;48.978;9.294;2022-10-31T09:07:05;12.95;;;6.35;;
49876;SDS011;35771;48.978;9.294;2022-10-31T09:09:32;21.50;;;6.47;;
49876;SDS011;35771;48.978;9.294;2022-10-31T09:12:00;10.88;;;6.78;;
49876;SDS011;35771;48.978;9.294;2022-10-31T09:14:26;14.13;;;6.18;;
49876;SDS011;35771;48.978;9.294;2022-10-31T09:16:53;16.02;;;6.72;;
49876;SDS011;35771;48.978;9.294;2022-10-31T09:19:19;16.58;;;6.82;;
49876;SDS011;35771;48.978;9.294;2022-10-31T09:21:46;26.45;;;6.45;;
49876;SDS011;35771;48.978;9.294;2022-10-31T09:24:13;25.48;;;6.38;;
49876;SDS011;35771;48.978;9.294;2022-10-31T09:26:39;14.00;;;5.80;;
49876;SDS011;35771;48.978;9.294;2022-10-31T09:29:07;17.27;;;6.20;;
49876;SDS011;35771;48.978;9.294;2022-10-31T09:31:34;18.75;;;8.30;;
49876;SDS011;35771;48.978;9.294;2022-10-31T09:34:01;15.73;;;7.90;;
49876;SDS011;35771;48.978;9.294;2022-10-31T09:36:28;24.95;;;7.35;;
49876;SDS011;35771;48.978;9.294;2022-10-31T09:38:55;17.85;;;6.25;;
49876;SDS011;35771;48.978;9.294;2022-10-31T09:41:23;16.02;;;6.28;;
49876;SDS011;35771;48.978;9.294;2022-10-31T09:43:56;13.55;;;5.53;;
49876;SDS011;35771;48.978;9.294;2022-10-31T09:46:32;19.42;;;6.78;;
49876;SDS011;35771;48.978;9.294;2022-10-31T09:49:18;15.82;;;7.00;;
49876;SDS011;35771;48.978;9.294;2022-10-31T09:51:57;15.48;;;6.40;;
49876;SDS011;35771;48.978;9.294;2022-10-31T09:54:33;17.33;;;6.38;;
49876;SDS011;35771;48.978;9.294;2022-10-31T09:57:04;18.38;;;6.47;;
49876;SDS011;35771;48.978;9.294;2022-10-31T09:59:33;12.52;;;5.70;;
49876;SDS011;35771;48.978;9.294;2022-10-31T10:02:02;9.90;;;5.03;;
49876;SDS011;35771;48.978;9.294;2022-10-31T10:04:37;13.18;;;6.63;;
49876;SDS011;35771;48.978;9.294;2022-10-31T10:07:11;11.48;;;5.90;;
49876;SDS011;35771;48.978;9.294;2022-10-31T10:09:45;11.77;;;5.88;;
49876;SDS011;35771;48.978;9.294;2022-10-31T10:12:13;18.00;;;5.47;;
49876;SDS011;35771;48.978;9.294;2022-10-31T10:14:52;14.38;;;5.18;;
49876;SDS011;35771;48.978;9.294;2022-10-31T10:17:35;9.82;;;4.93;;
49876;SDS011;35771;48.978;9.294;2022-10-31T10:20:13;13.95;;;5.60;;
49876;SDS011;35771;48.978;9.294;2022-10-31T10:22:51;18.33;;;5.55;;
49876;SDS011;35771;48.978;9.294;2022-10-31T10:25:24;9.05;;;5.05;;
49876;SDS011;35771;48.978;9.294;2022-10-31T10:27:58;15.85;;;5.20;;
49876;SDS011;35771;48.978;9.294;2022-10-31T10:30:35;16.23;;;6.40;;
49876;SDS011;35771;48.978;9.294;2022-10-31T10:33:10;16.40;;;5.32;;
49876;SDS011;35771;48.978;9.294;2022-10-31T10:35:41;14.07;;;5.65;;
49876;SDS011;35771;48.978;9.294;2022-10-31T10:38:15;12.13;;;5.68;;
49876;SDS011;35771;48.978;9.294;2022-10-31T10:40:46;13.30;;;5.20;;
49876;SDS011;35771;48.978;9.294;2022-10-31T10:43:18;13.32;;;5.05;;
49876;SDS011;35771;48.978;9.294;2022-10-31T10:45:49;14.40;;;4.57;;
49876;SDS011;35771;48.978;9.294;2022-10-31T10:51:10;17.80;;;5.35;;
49876;SDS011;35771;48.978;9.294;2022-10-31T10:53:48;15.90;;;6.50;;
49876;SDS011;35771;48.978;9.294;2022-10-31T10:56:32;15.02;;;5.90;;
49876;SDS011;35771;48.978;9.294;2022-10-31T10:59:18;10.48;;;5.22;;
49876;SDS011;35771;48.978;9.294;2022-10-31T11:01:48;12.02;;;5.05;;
49876;SDS011;35771;48.978;9.294;2022-10-31T11:04:27;9.88;;;4.65;;
49876;SDS011;35771;48.978;9.294;2022-10-31T11:06:56;22.53;;;5.20;;
49876;SDS011;35771;48.978;9.294;2022-10-31T11:09:23;17.45;;;4.68;;
49876;SDS011;35771;48.978;9.294;2022-10-31T11:11:50;16.15;;;4.80;;
49876;SDS011;35771;48.978;9.294;2022-10-31T11:14:17;25.10;;;6.40;;
49876;SDS011;35771;48.978;9.294;2022-10-31T11:16:46;8.60;;;4.15;;
49876;SDS011;35771;48.978;9.294;2022-10-31T11:19:15;8.38;;;4.63;;
49876;SDS011;35771;48.978;9.294;2022-10-31T11:21:46;9.45;;;4.82;;
49876;SDS011;35771;48.978;9.294;2022-10-31T11:24:15;11.55;;;5.43;;
49876;SDS011;35771;48.978;9.294;2022-10-31T11:26:44;18.20;;;4.68;;
49876;SDS011;35771;48.978;9.294;2022-10-31T11:29:13;12.93;;;4.80;;
49876;SDS011;35771;48.978;9.294;2022-10-31T11:31:42;10.30;;;5.38;;
49876;SDS011;35771;48.978;9.294;2022-10-31T11:34:14;15.38;;;5.18;;
49876;SDS011;35771;48.978;9.294;2022-10-31T11:36:46;10.88;;;5.43;;
49876;SDS011;35771;48.978;9.294;2022-10-31T11:39:15;16.80;;;4.38;;
49876;SDS011;35771;48.978;9.294;2022-10-31T11:41:45;11.18;;;5.43;;
49876;SDS011;35771;48.978;9.294;2022-10-31T11:44:13;10.82;;;5.20;;
49876;SDS011;35771;48.978;9.294;2022-10-31T11:46:43;13.55;;;5.13;;
49876;SDS011;35771;48.978;9.294;2022-10-31T11:49:14;12.55;;;5.35;;
49876;SDS011;35771;48.978;9.294;2022-10-31T11:51:48;13.25;;;5.15;;
49876;SDS011;35771;48.978;9.294;2022-10-31T11:54:22;9.32;;;5.05;;
49876;SDS011;35771;48.978;9.294;2022-10-31T11:56:51;19.08;;;5.13;;
49876;SDS011;35771;48.978;9.294;2022-10-31T11:59:21;14.73;;;5.75;;
49876;SDS011;35771;48.978;9.294;2022-10-31T12:01:52;12.02;;;5.20;;
49876;SDS011;35771;48.978;9.294;2022-10-31T12:04:23;16.05;;;4.88;;
49876;SDS011;35771;48.978;9.294;2022-10-31T12:06:56;16.23;;;5.25;;
49876;SDS011;35771;48.978;9.294;2022-10-31T12:09:24;13.60;;;5.07;;
49876;SDS011;35771;48.978;9.294;2022-10-31T12:11:59;13.43;;;5.75;;
49876;SDS011;35771;48.978;9.294;2022-10-31T12:14:39;10.35;;;5.07;;
49876;SDS011;35771;48.978;9.294;2022-10-31T12:17:16;13.63;;;5.50;;
49876;SDS011;35771;48.978;9.294;2022-10-31T12:19:51;11.88;;;4.82;;
49876;SDS011;35771;48.978;9.294;2022-10-31T12:22:36;13.35;;;5.60;;
49876;SDS011;35771;48.978;9.294;2022-10-31T12:25:23;13.15;;;5.80;;
49876;SDS011;35771;48.978;9.294;2022-10-31T12:28:03;14.20;;;5.30;;
49876;SDS011;35771;48.978;9.294;2022-10-31T12:31:03;14.05;;;5.43;;
49876;SDS011;35771;48.978;9.294;2022-10-31T12:33:43;13.90;;;5.15;;
49876;SDS011;35771;48.978;9.294;2022-10-31T12:36:21;10.98;;;5.25;;
49876;SDS011;35771;48.978;9.294;2022-10-31T12:39:06;13.95;;;5.20;;
49876;SDS011;35771;48.978;9.294;2022-10-31T12:41:47;13.75;;;4.75;;
49876;SDS011;35771;48.978;9.294;2022-10-31T12:44:38;12.93;;;4.50;;
49876;SDS011;35771;48.978;9.294;2022-10-31T12:47:27;11.23;;;4.63;;
49876;SDS011;35771;48.978;9.294;2022-10-31T12:50:20;13.68;;;5.68;;
49876;SDS011;35771;48.978;9.294;2022-10-31T12:53:00;12.07;;;4.75;;
49876;SDS011;35771;48.978;9.294;2022-10-31T12:55:47;13.43;;;5.10;;
49876;SDS011;35771;48.978;9.294;2022-10-31T12:58:24;13.95;;;5.22;;
49876;SDS011;35771;48.978;9.294;2022-10-31T13:00:55;11.13;;;5.10;;
49876;SDS011;35771;48.978;9.294;2022-10-31T13:03:30;10.68;;;4.93;;
49876;SDS011;35771;48.978;9.294;2022-10-31T13:06:05;12.02;;;5.32;;
49876;SDS011;35771;48.978;9.294;2022-10-31T13:08:36;12.57;;;4.82;;
49876;SDS011;35771;48.978;9.294;2022-10-31T13:11:10;10.07;;;4.78;;
49876;SDS011;35771;48.978;9.294;2022-10-31T13:13:40;10.13;;;4.35;;
49876;SDS011;35771;48.978;9.294;2022-10-31T13:16:12;12.32;;;5.85;;
49876;SDS011;35771;48.978;9.294;2022-10-31T13:18:43;16.85;;;4.15;;
49876;SDS011;35771;48.978;9.294;2022-10-31T13:21:16;13.13;;;4.93;;
49876;SDS011;35771;48.978;9.294;2022-10-31T13:23:48;11.30;;;4.65;;
49876;SDS011;35771;48.978;9.294;2022-10-31T13:26:18;19.33;;;5.35;;
49876;SDS011;35771;48.978;9.294;2022-10-31T13:28:51;16.85;;;5.00;;
49876;SDS011;35771;48.978;9.294;2022-10-31T13:31:23;16.52;;;5.20;;
49876;SDS011;35771;48.978;9.294;2022-10-31T13:33:52;12.35;;;4.88;;
49876;SDS011;35771;48.978;9.294;2022-10-31T13:36:29;11.60;;;5.03;;
49876;SDS011;35771;48.978;9.294;2022-10-31T13:39:02;13.07;;;5.10;;
49876;SDS011;35771;48.978;9.294;2022-10-31T13:41:40;13.60;;;5.18;;
49876;SDS011;35771;48.978;9.294;2022-10-31T13:44:12;17.55;;;5.95;;
49876;SDS011;35771;48.978;9.294;2022-10-31T13:46:42;13.98;;;5.10;;
49876;SDS011;35771;48.978;9.294;2022-10-31T13:49:24;15.98;;;5.07;;
49876;SDS011;35771;48.978;9.294;2022-10-31T13:54:51;15.40;;;5.53;;
49876;SDS011;35771;48.978;9.294;2022-10-31T13:57:29;11.80;;;5.32;;
49876;SDS011;35771;48.978;9.294;2022-10-31T13:59:58;9.35;;;5.03;;
49876;SDS011;35771;48.978;9.294;2022-10-31T14:02:26;13.02;;;5.03;;
49876;SDS011;35771;48.978;9.294;2022-10-31T14:04:56;9.47;;;4.87;;
49876;SDS011;35771;48.978;9.294;2022-10-31T14:07:24;18.23;;;5.72;;
49876;SDS011;35771;48.978;9.294;2022-10-31T14:09:53;12.20;;;5.43;;
49876;SDS011;35771;48.978;9.294;2022-10-31T14:12:24;10.68;;;4.40;;
49876;SDS011;35771;48.978;9.294;2022-10-31T14:14:56;13.82;;;3.97;;
49876;SDS011;35771;48.978;9.294;2022-10-31T14:17:27;15.85;;;3.83;;
49876;SDS011;35771;48.978;9.294;2022-10-31T14:20:03;22.00;;;4.43;;
